Home > Products > Valid Products > MTR

000
SAUS43 KDTX 180254
MTRP58
METAR KP58 180251Z AUTO 24005KT 12/08 A2997 RMK AO1 SLP147 T01170078
53006





000
SAUS43 KDTX 180153
MTRP58
METAR KP58 180151Z AUTO 24004KT 13/08 A2996 RMK AO1 SLP147 T01280078





000
SAUS43 KDTX 180054
MTRP58
METAR KP58 180051Z AUTO 23004KT 13/09 A2995 RMK AO1 SLP143 T01280089





000
SAUS43 KDTX 172354
MTRP58
METAR KP58 172351Z AUTO 23003KT 13/09 A2995 RMK AO1 SLP144 6////
T01330089 10211 20133





000
SAUS43 KDTX 172254
MTRP58
METAR KP58 172251Z AUTO 25003KT 17/08 A2995 RMK AO1 SLP140 T01720078
PNO





000
SAUS43 KDTX 172153
MTRP58
METAR KP58 172151Z AUTO VRB05KT 19/07 A2994 RMK AO1 SLP139 T01890072





000
SAUS43 KDTX 172054 COR
MTRP58
METAR KP58 172051Z AUTO 25007KT 210V270 19/08 A2994 RMK AO1 SLP137
T01940078 58006





000
SAUS43 KDTX 171954 COR
MTRP58
METAR KP58 171951Z AUTO VRB05KT 19/07 A2995 RMK AO1 SLP141 T01940067
$





000
SAUS43 KDTX 171852
MTRP58
METAR KP58 171851Z AUTO VRB06KT 19/07 A2995 RMK AO1 SLP141 T01890072





000
SAUS43 KDTX 171752
MTRP58
METAR KP58 171751Z AUTO 26008G14KT 230V300 19/07 A2996 RMK AO1
SLP143 T01890072 10189 20089 56010





000
SAUS43 KDTX 171655 COR
MTRP58
METAR KP58 171651Z AUTO VRB06KT 18/09 A2996 RMK AO1 SLP145 T01830089
JN
REQ ARBMTRP58





000
SAUS43 KDTX 171554
MTRP58
METAR KP58 171551Z AUTO 26006KT 17/09 A2998 RMK AO1 SLP150 T01670094





000
SAUS43 KDTX 171454
MTRP58
METAR KP58 171451Z AUTO VRB05KT 15/09 A2999 RMK AO1 SLP155 T01500094
57005





000
SAUS43 KDTX 171354
MTRP58
METAR KP58 171351Z AUTO 23009KT 13/08 A2999 RMK AO1 SLP157 T01280083





000
SAUS43 KDTX 171253
MTRP58
METAR KP58 171251Z AUTO 23008KT 11/07 A3000 RMK AO1 SLP160 T01060072





000
SAUS43 KDTX 171154
MTRP58
METAR KP58 171151Z AUTO 23007KT 09/06 A3000 RMK AO1 SLP162 T00890061
10094 20089 55001





000
SAUS43 KDTX 171054
MTRP58
METAR KP58 171051Z AUTO 23007KT 09/07 A3000 RMK AO1 SLP159 T00890067





000
SAUS43 KDTX 170954
MTRP58
METAR KP58 170951Z AUTO 22006KT 09/06 A3000 RMK AO1 SLP160 T00890061





000
SAUS43 KDTX 170854
MTRP58
METAR KP58 170851Z AUTO 22006KT 09/06 A3001 RMK AO1 SLP161 T00890061
58007





000
SAUS43 KDTX 170754
MTRP58
METAR KP58 170751Z AUTO 24004KT 09/06 A3001 RMK AO1 SLP163 T00940061





000
SAUS43 KDTX 170654
MTRP58
METAR KP58 170651Z AUTO 24004KT 09/06 A3002 RMK AO1 SLP168 T00940061





000
SAUS43 KDTX 170554
MTRP58
METAR KP58 170551Z AUTO 23004KT 09/06 A3003 RMK AO1 SLP168 T00940061
10117 20094 58003





000
SAUS43 KDTX 170454
MTRP58
METAR KP58 170451Z AUTO 25004KT 10/07 A3003 RMK AO1 SLP169 T01000067
401780083





000
SAUS43 KDTX 170354
MTRP58
METAR KP58 170351Z AUTO 24004KT 10/07 A3003 RMK AO1 SLP171 T01000067





000
SAUS43 KDTX 170254
MTRP58
METAR KP58 170251Z AUTO 23004KT 10/07 A3004 RMK AO1 SLP172 T01000067
58002





000
SAUS43 KDTX 170154
MTRP58
METAR KP58 170151Z AUTO 24004KT 11/08 A3004 RMK AO1 SLP174 T01060078





000
SAUS43 KDTX 170054
MTRP58
METAR KP58 170051Z AUTO 23003KT 11/08 A3004 RMK AO1 SLP175 T01060083





000
SAUS43 KDTX 162354
MTRP58
METAR KP58 162351Z AUTO 23003KT 12/08 A3004 RMK AO1 SLP175 T01170083
10178 20117 56001





000
SAUS43 KDTX 162253
MTRP58
METAR KP58 162251Z AUTO 25005KT 16/07 A3004 RMK AO1 SLP175 T01560067





000
SAUS43 KDTX 162154
MTRP58
METAR KP58 162151Z AUTO 28007KT 240V310 17/07 A3005 RMK AO1 SLP174
T01720067





000
SAUS43 KDTX 162054
MTRP58
METAR KP58 162051Z AUTO 25006KT 17/07 A3005 RMK AO1 SLP175 T01720067
56014





000
SAUS43 KDTX 161953
MTRP58
METAR KP58 161951Z AUTO VRB04KT 17/07 A3006 RMK AO1 SLP180 T01720072





000
SAUS43 KDTX 161853
MTRP58
METAR KP58 161851Z AUTO 29004KT 16/07 A3007 RMK AO1 SLP183 T01610072





000
SAUS43 KDTX 161754
MTRP58
METAR KP58 161751Z AUTO 26004KT 17/07 A3009 RMK AO1 SLP188 T01670072
10167 20089 56014





000
SAUS43 KDTX 161654
MTRP58
METAR KP58 161651Z AUTO 01003KT 16/07 A3010 RMK AO1 SLP193 T01610072





000
SAUS43 KDTX 161554
MTRP58
METAR KP58 161551Z AUTO 00000KT 16/08 A3012 RMK AO1 SLP198 T01560078





000
SAUS43 KDTX 161454 COR
MTRP58
METAR KP58 161451Z AUTO VRB03KT 15/07 A3013 RMK AO1 SLP203 T01500072
50002





000
SAUS43 KDTX 161354
MTRP58
METAR KP58 161351Z AUTO 00000KT 15/08 A3013 RMK AO1 SLP204 T01500083





000
SAUS43 KDTX 161253
MTRP58
METAR KP58 161251Z AUTO 00000KT 11/09 A3013 RMK AO1 SLP202 T01060094





000
SAUS43 KDTX 161154
MTRP58
METAR KP58 161151Z AUTO 00000KT 09/08 A3013 RMK AO1 SLP203 70006
T00940078 10117 20083 53011





000
SAUS43 KDTX 161053
MTRP58
METAR KP58 161051Z AUTO 26003KT 09/07 A3011 RMK AO1 SLP199 T00890072





000
SAUS43 KDTX 160954
MTRP58
METAR KP58 160951Z AUTO VRB04KT 09/07 A3010 RMK AO1 SLP192 T00890072





000
SAUS43 KDTX 160854
MTRP58
METAR KP58 160851Z AUTO VRB03KT 11/08 A3009 RMK AO1 SLP191 T01060078
53006





000
SAUS43 KDTX 160754
MTRP58
METAR KP58 160751Z AUTO 00000KT 11/08 A3009 RMK AO1 SLP189 T01060083





000
SAUS43 KDTX 160654
MTRP58
METAR KP58 160651Z AUTO 00000KT 11/09 A3008 RMK AO1 SLP186 T01060089





000
SAUS43 KDTX 160554
MTRP58
METAR KP58 160551Z AUTO 00000KT 12/10 A3007 RMK AO1 SLP184 T01170100
10128 20111 55002





000
SAUS43 KDTX 160454
MTRP58
METAR KP58 160451Z AUTO 26004KT 11/09 A3007 RMK AO1 SLP183 T01110094
401500089





000
SAUS43 KDTX 160352
MTRP58
METAR KP58 160351Z AUTO VRB03KT 12/09 A3008 RMK AO1 SLP185 T01170094





000
SAUS43 KDTX 160254
MTRP58
METAR KP58 160251Z AUTO 26003KT 12/10 A3008 RMK AO1 SLP186 T01170100
52004





000
SAUS43 KDTX 160154
MTRP58
METAR KP58 160151Z AUTO 26004KT 12/10 A3007 RMK AO1 SLP184 T01170100





000
SAUS43 KDTX 160052
MTRP58
METAR KP58 160051Z AUTO 27003KT 12/11 A3007 RMK AO1 SLP183 T01220106





000
SAUS43 KDTX 152353
MTRP58
METAR KP58 152351Z AUTO 27003KT 13/11 A3007 RMK AO1 SLP182 T01280106
10150 20128 53001





000
SAUS43 KDTX 152253
MTRP58
METAR KP58 152251Z AUTO 29004KT 13/10 A3007 RMK AO1 SLP183 T01330100





000
SAUS43 KDTX 152154 COR
MTRP58
METAR KP58 152151Z AUTO 29004KT 14/11 A3006 RMK AO1 SLP179 T01440106





000
SAUS43 KDTX 152054
MTRP58
METAR KP58 152051Z AUTO 29005KT 15/11 A3006 RMK AO1 SLP181 T01500111
58011





000
SAUS43 KDTX 151954
MTRP58
METAR KP58 151951Z AUTO 28004KT 14/11 A3008 RMK AO1 SLP186 T01440111





000
SAUS43 KDTX 151853 COR
MTRP58
METAR KP58 151851Z AUTO VRB03KT 14/11 A3008 RMK AO1 SLP188 T01440111





000
SAUS43 KDTX 151754 COR
MTRP58
METAR KP58 151751Z AUTO 26004KT 13/11 A3010 RMK AO1 SLP192 60006
T01330106 10139 20117 56010





000
SAUS43 KDTX 151654 COR
MTRP58
METAR KP58 151651Z AUTO VRB04KT 13/11 A3010 RMK AO1 SLP193 P0002
T01280106





000
SAUS43 KDTX 151554
MTRP58
METAR KP58 151551Z AUTO 25004KT 12/09 A3012 RMK AO1 SLP201 P0004
T01170094





000
SAUS43 KDTX 151452
MTRP58
METAR KP58 151451Z AUTO 24006KT 13/08 A3013 RMK AO1 SLP202 T01330083
55001





000
SAUS43 KDTX 151354
MTRP58
METAR KP58 151351Z AUTO 24008KT 200V270 12/08 A3012 RMK AO1 SLP201
T01220078





000
SAUS43 KDTX 151254
MTRP58
METAR KP58 151251Z AUTO 23007KT 12/07 A3013 RMK AO1 SLP204 T01220072





000
SAUS43 KDTX 151154
MTRP58
METAR KP58 151151Z AUTO 23005KT 12/07 A3013 RMK AO1 SLP204 T01170067
10117 20089 58001





000
SAUS43 KDTX 151052
MTRP58
METAR KP58 151051Z AUTO 23005KT 12/07 A3013 RMK AO1 SLP203 T01170067





000
SAUS43 KDTX 150954
MTRP58
METAR KP58 150951Z AUTO 23007KT 11/06 A3014 RMK AO1 SLP206 T01060061





000
SAUS43 KDTX 150853
MTRP58
METAR KP58 150851Z AUTO VRB05KT 11/07 A3013 RMK AO1 SLP205 T01060067
58007





000
SAUS43 KDTX 150754
MTRP58
METAR KP58 150751Z AUTO 22005KT 09/06 A3014 RMK AO1 SLP208 T00940061





000
SAUS43 KDTX 150653
MTRP58
METAR KP58 150651Z AUTO 22004KT 09/06 A3015 RMK AO1 SLP211 T00940061





000
SAUS43 KDTX 150554
MTRP58
METAR KP58 150551Z AUTO VRB03KT 09/06 A3016 RMK AO1 SLP212 T00940061
10128 20094 55003





000
SAUS43 KDTX 150454
MTRP58
METAR KP58 150451Z AUTO VRB03KT 09/06 A3015 RMK AO1 SLP212 T00940061
401500061





000
SAUS43 KDTX 150352
MTRP58
METAR KP58 150351Z AUTO VRB03KT 10/06 A3016 RMK AO1 SLP215 T01000061





    US Dept of Commerce
    National Oceanic and Atmospheric Administration
    National Weather Service
    1325 East West Highway
    Silver Spring, MD 20910
    Page Author: NWS Internet Services Team
Disclaimer
Information Quality
Credits
Glossary
Privacy Policy
Freedom of Information Act (FOIA)
About Us
Career Opportunities